Xique-Xique, Brazil
Current Conditions -  °F | °C
As of 6:00 PM on Sunday 23 Nov 2014 (Local Time) from SBPL Reporting Station
Broken Clouds Broken Clouds  
Wind Chill: 90°   Ceiling: 7000
Heat Index: 92°   Visibility: 6mi
Dew Point: 66°   Wind: 5mph
Humidity: 46%   Direction: 150°SSE
Pressure: 29.85"   Gusts: NA
Location:  10.82°S, 42.73°W
Report Text: SBPL 232100Z 15004KT 9999 FEW020 BKN070 32/19 Q1011
Loading
Personal Weather Stations






























Interactive Weather Map New forecast layout! Learn more

10-Day Weather Forecast

Advertisements
Track Severe Weather on mobile